Merced Regional Macready Field Merced US
ICAO: KMCE
IATA: MCE
Category: Medium
Scheduled Services: No

Elevation: 155 ft
TransAlt. 18000 ft.

Airport Communications:
NORCAL APP/DEP:120.95
ASOS:132.175
CTAF/UNICOM:122.7

KMCE Zoom In..

Runways:

(A) RW 12 length 5914 ft width 150 ft
---- / hdg 123

(B) RW 30 length 5914 ft width 150 ft
ILS 109.30 / hdg 303

Location; KMCE
Day. 23 / Time. 09.53 Zulu
* Altimeter: 29.99
* Temperature: 24° c. 75.2°f.
* Wind from: 320° Speed 07 kn.
Dewpoint: 13° c.
Visibility: 10 Statute Miles.
Clouds: Clear (automated report).

KMCE 230953Z AUTO 32007KT 10SM CLR 24/13 A2999 RMK AO2 SLP154 T02390133


Wind From 320°
Speed 07 kn.

 
 
jpsmedia.com for Web Design worldairports.se 2018   terms of use